Terminal Aerodrome Forecast
Issued by NWS Twin Cities, MN

Home | Current Version | Previous Version | Text Only | Print | Product List | Glossary On
Versions: 1 2 3 4 5 6 7 8 9 10 11 12 13 14 15 16 17
000
FTUS43 KMPX 212300 RRA
TAFEAU
TAF
KEAU 212341Z 2200/2224 16009KT 6SM BR OVC007
     FM220600 14011KT 2SM -DZ BR OVC004
     FM222000 11011KT 3SM -RA OVC007=

USA.gov is the U.S. government's official web portal to all federal, state and local government web resources and services.